Time;durP1;ratioP1;P1;durP2;ratioP2;P2;SDS_P1;SDS_P2;PMS_P1;PMS_P2;Temp;Humidity;BMP_temperature;BMP_pressure;BME280_temperature;BME280_humidity;BME280_pressure;Samples;Min_cycle;Max_cycle;Signal;HPM_P1;HPM_P2
2021/08/06 00:01:31;;;;;;;3.13;2.40;;;19.80;68.40;;;;;;5074272;28;20027;-70
2021/08/06 00:03:58;;;;;;;3.47;2.83;;;19.90;68.30;;;;;;5092424;28;20103;-70
2021/08/06 00:06:27;;;;;;;3.70;2.85;;;19.90;68.20;;;;;;5092381;28;20023;-70
2021/08/06 00:08:56;;;;;;;7.00;2.78;;;19.90;68.00;;;;;;5092298;28;20157;-69
2021/08/06 00:11:31;;;;;;;4.78;3.17;;;19.90;67.80;;;;;;5072089;28;20410;-70
2021/08/06 00:13:57;;;;;;;6.75;3.20;;;19.90;67.80;;;;;;5071341;28;20035;-70
2021/08/06 00:16:24;;;;;;;8.65;2.35;;;19.80;67.80;;;;;;5053929;28;20394;-69
2021/08/06 00:18:50;;;;;;;3.10;2.78;;;19.80;67.80;;;;;;5089109;28;20469;-69
2021/08/06 00:21:17;;;;;;;5.72;2.72;;;19.70;67.90;;;;;;5092203;28;20073;-70
2021/08/06 00:23:44;;;;;;;3.50;2.75;;;19.70;67.90;;;;;;5092229;28;20410;-70
2021/08/06 00:26:11;;;;;;;2.85;2.58;;;19.60;67.90;;;;;;5092130;28;20024;-70
2021/08/06 00:28:37;;;;;;;4.03;3.13;;;19.60;68.00;;;;;;5092492;28;20024;-70
2021/08/06 00:31:03;;;;;;;7.43;2.90;;;19.60;68.10;;;;;;5092060;28;20714;-70
2021/08/06 00:33:28;;;;;;;4.38;3.10;;;19.50;68.20;;;;;;5091209;28;20024;-70
2021/08/06 00:35:54;;;;;;;4.13;3.33;;;19.50;68.30;;;;;;5070391;28;20039;-69
2021/08/06 00:38:20;;;;;;;4.47;2.95;;;19.40;68.30;;;;;;5090686;28;20016;-69
2021/08/06 00:40:46;;;;;;;3.03;2.47;;;19.40;68.50;;;;;;5091909;28;20381;-70
2021/08/06 00:43:11;;;;;;;4.20;3.03;;;19.40;68.50;;;;;;5091081;28;20035;-70
2021/08/06 00:45:37;;;;;;;5.97;3.75;;;19.40;68.70;;;;;;5073695;28;20024;-71
2021/08/06 00:48:04;;;;;;;3.63;3.10;;;19.30;68.80;;;;;;5091997;28;20024;-70
2021/08/06 00:50:31;;;;;;;5.43;3.00;;;19.30;69.00;;;;;;5091988;28;20040;-69
2021/08/06 00:52:57;;;;;;;6.75;3.15;;;19.30;69.20;;;;;;5091755;28;20067;-70
2021/08/06 00:55:23;;;;;;;7.03;3.40;;;19.20;69.30;;;;;;5091832;28;20469;-69
2021/08/06 00:57:48;;;;;;;5.13;3.22;;;19.20;69.50;;;;;;5091929;28;20103;-71
2021/08/06 01:00:14;;;;;;;4.07;3.33;;;19.10;69.50;;;;;;5091827;28;20055;-70
2021/08/06 01:02:46;;;;;;;3.38;2.92;;;19.10;69.70;;;;;;5073675;28;20020;-70
2021/08/06 01:05:16;;;;;;;6.50;3.38;;;19.10;69.70;;;;;;5080856;28;20031;-70
2021/08/06 01:08:07;;;;;;;12.15;3.65;;;19.10;69.90;;;;;;5091810;28;20023;-70
2021/08/06 01:10:58;;;;;;;6.78;3.78;;;19.10;70.00;;;;;;5091763;28;20025;-70
2021/08/06 01:13:36;;;;;;;4.70;3.30;;;19.00;70.00;;;;;;5091664;28;20443;-69
2021/08/06 01:16:04;;;;;;;3.83;3.03;;;19.00;69.80;;;;;;5091671;28;20017;-69
2021/08/06 01:18:33;;;;;;;3.90;3.00;;;19.00;69.80;;;;;;5091668;28;20416;-70
2021/08/06 01:21:09;;;;;;;3.85;2.97;;;19.00;69.60;;;;;;5091709;28;20055;-70
2021/08/06 01:23:38;;;;;;;5.93;3.80;;;19.00;69.70;;;;;;5091640;28;20032;-70
2021/08/06 01:26:12;;;;;;;4.93;3.33;;;19.00;69.80;;;;;;5094461;28;20032;-70
2021/08/06 01:28:41;;;;;;;5.13;3.30;;;18.90;69.70;;;;;;5095416;28;20402;-70
2021/08/06 01:31:07;;;;;;;3.58;2.80;;;18.90;69.70;;;;;;5095305;28;20028;-70
2021/08/06 01:33:34;;;;;;;3.30;2.60;;;18.90;69.70;;;;;;5095226;28;20381;-70
2021/08/06 01:36:00;;;;;;;4.30;3.08;;;18.80;69.70;;;;;;5076017;28;20039;-70
2021/08/06 01:38:27;;;;;;;3.28;2.63;;;18.80;70.00;;;;;;5095471;28;20043;-70
2021/08/06 01:41:05;;;;;;;5.22;2.80;;;18.80;70.00;;;;;;5095085;28;20385;-70
2021/08/06 01:43:35;;;;;;;4.10;2.72;;;18.80;70.00;;;;;;5095162;28;20020;-70
2021/08/06 01:46:18;;;;;;;3.65;2.90;;;18.80;70.80;;;;;;5095078;28;20020;-70
2021/08/06 01:48:47;;;;;;;3.47;2.47;;;18.80;70.40;;;;;;5095097;28;20055;-70
2021/08/06 01:51:14;;;;;;;7.88;2.70;;;18.80;70.60;;;;;;5094871;28;20451;-70
2021/08/06 01:53:47;;;;;;;6.07;2.58;;;18.80;70.70;;;;;;5076642;28;20405;-69
2021/08/06 01:56:18;;;;;;;5.38;2.53;;;18.80;70.60;;;;;;5095095;28;20085;-69
2021/08/06 01:58:47;;;;;;;3.75;2.42;;;18.90;70.50;;;;;;5094813;28;20427;-70
2021/08/06 02:01:14;;;;;;;3.60;2.35;;;18.90;70.30;;;;;;5094783;28;20098;-69
2021/08/06 02:03:40;;;;;;;3.78;2.50;;;18.90;70.20;;;;;;5093755;28;20367;-70
2021/08/06 02:06:07;;;;;;;6.30;2.53;;;18.80;70.20;;;;;;5094645;28;20063;-70
2021/08/06 02:08:36;;;;;;;4.25;2.40;;;18.80;70.20;;;;;;5094664;28;20028;-70
2021/08/06 02:11:03;;;;;;;2.58;2.15;;;18.80;70.30;;;;;;5094569;28;20028;-70
2021/08/06 02:13:28;;;;;;;4.20;2.17;;;18.80;70.10;;;;;;5094388;28;20024;-69
2021/08/06 02:15:55;;;;;;;3.15;2.00;;;18.80;70.10;;;;;;5094375;28;20073;-69
2021/08/06 02:18:24;;;;;;;4.15;2.17;;;18.80;70.00;;;;;;5094281;28;20030;-69
2021/08/06 02:21:05;;;;;;;3.25;2.28;;;18.80;70.40;;;;;;5094309;28;20423;-70
2021/08/06 02:23:33;;;;;;;2.75;2.22;;;18.80;70.40;;;;;;5094343;28;20024;-69
2021/08/06 02:26:00;;;;;;;2.78;2.13;;;18.70;70.40;;;;;;5076040;28;20044;-70
2021/08/06 02:28:27;;;;;;;2.80;2.28;;;18.70;70.30;;;;;;5094187;28;20035;-69
2021/08/06 02:30:54;;;;;;;3.05;2.15;;;18.70;70.50;;;;;;5075987;28;20028;-70
2021/08/06 02:33:21;;;;;;;3.63;2.45;;;18.70;70.60;;;;;;5094072;28;20020;-70
2021/08/06 02:35:47;;;;;;;2.50;2.22;;;18.70;70.60;;;;;;5089834;28;20036;-70
2021/08/06 02:38:20;;;;;;;2.40;2.05;;;18.60;70.60;;;;;;5092254;28;20072;-69
2021/08/06 02:40:46;;;;;;;3.33;2.30;;;18.70;70.60;;;;;;5093476;28;20470;-69
2021/08/06 02:43:12;;;;;;;5.80;2.20;;;18.70;70.30;;;;;;5074873;28;20027;-70
2021/08/06 02:45:39;;;;;;;4.03;1.70;;;18.60;70.20;;;;;;5093815;28;20016;-70
2021/08/06 02:48:05;;;;;;;3.83;2.08;;;18.60;70.10;;;;;;5093745;28;20099;-70
2021/08/06 02:50:31;;;;;;;4.68;1.75;;;18.60;70.10;;;;;;5093696;28;20127;-70
2021/08/06 02:52:57;;;;;;;1.52;1.42;;;18.60;70.10;;;;;;5075250;28;20044;-70
2021/08/06 02:55:22;;;;;;;7.18;1.98;;;18.60;70.10;;;;;;5093574;28;20031;-70
2021/08/06 02:57:48;;;;;;;1.90;1.58;;;18.60;70.10;;;;;;5075390;28;20028;-70
2021/08/06 03:00:14;;;;;;;2.10;1.90;;;18.50;70.30;;;;;;5092624;28;20016;-69
2021/08/06 03:02:40;;;;;;;3.63;1.83;;;18.50;70.60;;;;;;5093460;28;20110;-69
2021/08/06 03:05:06;;;;;;;3.13;1.70;;;18.50;70.90;;;;;;5075238;28;20099;-69
2021/08/06 03:07:32;;;;;;;1.98;1.70;;;18.60;71.10;;;;;;5093289;28;20032;-70
2021/08/06 03:09:58;;;;;;;3.58;1.80;;;18.60;71.20;;;;;;5093448;28;20565;-70
2021/08/06 03:12:24;;;;;;;2.17;1.98;;;18.60;71.30;;;;;;5074273;28;20093;-69
2021/08/06 03:14:50;;;;;;;2.97;1.77;;;18.60;71.30;;;;;;5093140;28;20366;-69
2021/08/06 03:17:15;;;;;;;3.92;1.73;;;18.70;71.40;;;;;;5093115;28;20051;-70
2021/08/06 03:19:41;;;;;;;1.90;1.70;;;18.70;71.50;;;;;;5093360;28;20020;-70
2021/08/06 03:22:07;;;;;;;3.67;2.05;;;18.80;71.70;;;;;;5092725;28;20377;-70
2021/08/06 03:24:33;;;;;;;2.42;1.77;;;18.80;71.70;;;;;;5092051;28;20367;-70
2021/08/06 03:26:59;;;;;;;3.90;1.88;;;18.90;71.80;;;;;;5093028;28;20472;-69
2021/08/06 03:29:25;;;;;;;2.78;1.92;;;19.00;71.80;;;;;;5093027;28;20028;-69
2021/08/06 03:31:50;;;;;;;3.50;2.00;;;19.10;71.60;;;;;;5092536;28;20378;-69
2021/08/06 03:34:16;;;;;;;3.67;2.35;;;19.10;71.30;;;;;;5091895;28;20531;-70
2021/08/06 03:36:42;;;;;;;3.70;1.80;;;19.20;71.00;;;;;;5092784;28;20092;-70
2021/08/06 03:39:08;;;;;;;3.90;3.13;;;19.20;70.90;;;;;;5092708;28;20027;-70
2021/08/06 03:41:34;;;;;;;5.32;2.47;;;19.30;70.90;;;;;;5092716;28;20020;-70
2021/08/06 03:44:00;;;;;;;2.92;1.83;;;19.30;71.00;;;;;;5074413;28;20051;-70
2021/08/06 03:46:26;;;;;;;2.58;1.85;;;19.40;71.10;;;;;;5092736;28;20028;-70
2021/08/06 03:48:51;;;;;;;3.00;1.75;;;19.50;71.10;;;;;;5090860;28;20028;-70
2021/08/06 03:51:17;;;;;;;2.95;2.28;;;19.50;70.90;;;;;;5092601;28;20035;-71
2021/08/06 03:53:43;;;;;;;3.33;2.30;;;19.50;70.60;;;;;;5092382;28;20052;-71
2021/08/06 03:56:09;;;;;;;5.45;2.42;;;19.60;70.50;;;;;;5092390;28;20028;-70
2021/08/06 03:58:35;;;;;;;2.40;1.70;;;19.60;70.60;;;;;;5074464;28;20026;-70
2021/08/06 04:01:01;;;;;;;2.90;1.60;;;19.70;70.40;;;;;;5092395;28;20047;-69
2021/08/06 04:03:26;;;;;;;2.75;2.00;;;19.70;70.40;;;;;;5092336;28;20028;-70
2021/08/06 04:05:52;;;;;;;2.97;2.20;;;19.80;70.30;;;;;;5092305;28;20035;-70
2021/08/06 04:08:18;;;;;;;7.07;2.08;;;19.80;69.90;;;;;;5092277;28;20020;-70
2021/08/06 04:10:44;;;;;;;2.75;2.20;;;19.80;69.80;;;;;;5073199;28;20127;-70
2021/08/06 04:13:10;;;;;;;3.55;2.17;;;19.80;69.50;;;;;;5092145;28;20028;-70
2021/08/06 04:15:35;;;;;;;9.23;2.80;;;19.80;69.40;;;;;;5073932;28;20032;-70
2021/08/06 04:18:01;;;;;;;2.10;1.63;;;19.80;69.30;;;;;;5092055;28;20020;-70
2021/08/06 04:20:27;;;;;;;2.08;1.73;;;19.90;69.40;;;;;;5092050;28;20016;-70
2021/08/06 04:22:53;;;;;;;1.67;1.58;;;19.90;69.60;;;;;;5092151;28;20028;-70
2021/08/06 04:25:19;;;;;;;6.85;1.73;;;19.90;69.70;;;;;;5092062;28;20521;-70
2021/08/06 04:27:45;;;;;;;2.08;1.88;;;20.00;69.80;;;;;;5092000;28;20032;-70
2021/08/06 04:30:12;;;;;;;5.30;2.15;;;20.00;69.50;;;;;;5092107;28;20502;-70
2021/08/06 04:32:38;;;;;;;5.75;1.50;;;20.00;69.40;;;;;;5092047;28;20118;-70
2021/08/06 04:35:04;;;;;;;3.67;1.90;;;20.10;69.50;;;;;;5073020;28;20110;-70
2021/08/06 04:37:30;;;;;;;2.47;1.85;;;20.10;69.20;;;;;;5088152;28;20044;-70
2021/08/06 04:39:55;;;;;;;1.92;1.50;;;20.20;68.90;;;;;;5090082;28;20368;-70
2021/08/06 04:42:21;;;;;;;2.45;1.50;;;20.20;68.90;;;;;;5072811;28;20031;-71
2021/08/06 04:44:48;;;;;;;2.88;1.63;;;20.20;69.60;;;;;;5072057;28;20028;-70
2021/08/06 04:47:13;;;;;;;6.65;2.03;;;20.20;68.50;;;;;;5091948;28;20119;-70
2021/08/06 04:49:39;;;;;;;3.85;1.92;;;20.30;69.00;;;;;;5075893;28;20116;-70
2021/08/06 04:52:05;;;;;;;6.10;2.00;;;20.30;69.10;;;;;;5071413;28;20024;-70
2021/08/06 04:54:31;;;;;;;2.38;1.73;;;20.40;69.10;;;;;;5071602;28;20079;-70
2021/08/06 04:56:57;;;;;;;5.95;1.55;;;20.40;69.20;;;;;;5068345;28;20036;-70
2021/08/06 04:59:23;;;;;;;2.20;1.70;;;20.50;68.50;;;;;;5073904;28;20024;-70
2021/08/06 05:01:48;;;;;;;4.13;1.65;;;20.60;68.50;;;;;;5095423;28;20024;-70
2021/08/06 05:04:14;;;;;;;2.85;1.60;;;20.60;67.90;;;;;;5095740;28;20020;-70
2021/08/06 05:06:40;;;;;;;4.35;1.83;;;20.60;68.90;;;;;;5093643;28;20055;-70
2021/08/06 05:09:05;;;;;;;3.38;1.77;;;20.70;68.50;;;;;;5094694;28;20489;-70
2021/08/06 05:11:31;;;;;;;2.25;1.70;;;20.70;67.20;;;;;;5094126;28;20142;-70
2021/08/06 05:13:57;;;;;;;4.00;1.70;;;20.70;67.10;;;;;;5095410;28;20074;-70
2021/08/06 05:16:23;;;;;;;2.65;1.88;;;20.80;67.10;;;;;;5095461;28;20028;-70
2021/08/06 05:18:49;;;;;;;9.85;1.85;;;20.80;67.10;;;;;;5076165;28;20028;-69
2021/08/06 05:21:15;;;;;;;4.38;1.55;;;20.80;66.90;;;;;;5095304;28;20095;-70
2021/08/06 05:23:41;;;;;;;8.63;1.77;;;20.80;67.30;;;;;;5094705;28;20588;-70
2021/08/06 05:26:06;;;;;;;1.83;1.42;;;20.90;67.50;;;;;;5094094;28;20028;-70
2021/08/06 05:28:32;;;;;;;2.60;2.08;;;20.90;67.70;;;;;;5095173;28;20035;-71
2021/08/06 05:30:58;;;;;;;2.60;1.65;;;20.90;66.80;;;;;;5076668;28;20058;-72
2021/08/06 05:33:24;;;;;;;2.45;1.77;;;20.90;67.00;;;;;;5094327;28;20078;-71
2021/08/06 05:35:50;;;;;;;5.68;1.80;;;21.00;67.20;;;;;;5094298;28;20034;-70
2021/08/06 05:38:16;;;;;;;2.67;1.55;;;21.00;67.10;;;;;;5094320;28;20541;-70
2021/08/06 05:40:42;;;;;;;2.47;1.40;;;21.00;67.30;;;;;;5092678;28;20114;-69
2021/08/06 05:43:08;;;;;;;3.38;1.70;;;21.10;67.50;;;;;;5094918;28;20020;-70
2021/08/06 05:45:34;;;;;;;4.18;1.92;;;21.10;67.10;;;;;;5076420;28;20131;-70
2021/08/06 05:47:59;;;;;;;2.90;1.88;;;21.10;66.60;;;;;;5095063;28;20107;-70
2021/08/06 05:50:27;;;;;;;2.53;1.48;;;21.10;65.90;;;;;;5077851;28;20024;-70
2021/08/06 05:52:53;;;;;;;3.15;1.50;;;21.10;65.70;;;;;;5091352;28;20073;-70
2021/08/06 05:55:19;;;;;;;7.50;2.10;;;21.10;66.30;;;;;;5064444;28;20461;-70
2021/08/06 05:57:45;;;;;;;2.38;1.70;;;21.20;66.40;;;;;;5081967;28;20031;-70
2021/08/06 06:00:14;;;;;;;3.53;1.42;;;21.10;66.30;;;;;;5079026;28;20069;-70
2021/08/06 06:02:39;;;;;;;2.15;1.67;;;21.20;66.00;;;;;;5094532;28;20425;-70
2021/08/06 06:05:06;;;;;;;2.13;1.50;;;21.20;66.90;;;;;;5093740;28;20067;-70
2021/08/06 06:07:41;;;;;;;3.40;1.77;;;21.20;66.60;;;;;;5094483;28;20032;-70
2021/08/06 06:10:07;;;;;;;3.53;1.65;;;21.20;66.20;;;;;;5094424;28;20055;-70
2021/08/06 06:12:33;;;;;;;5.47;1.40;;;21.20;66.50;;;;;;5092054;28;20028;-70
2021/08/06 06:14:58;;;;;;;2.38;1.55;;;21.20;66.50;;;;;;5088748;28;20093;-70
2021/08/06 06:17:24;;;;;;;2.35;1.70;;;21.20;66.80;;;;;;5093982;28;20053;-70
2021/08/06 06:19:51;;;;;;;2.00;1.52;;;21.30;67.00;;;;;;5094123;28;20031;-70
2021/08/06 06:22:17;;;;;;;4.57;2.08;;;21.30;67.30;;;;;;5094258;28;20461;-72
2021/08/06 06:24:42;;;;;;;3.40;1.77;;;21.40;67.20;;;;;;5091940;28;20024;-69
2021/08/06 06:27:09;;;;;;;5.30;2.28;;;21.50;67.20;;;;;;5083403;28;20031;-70
2021/08/06 06:29:35;;;;;;;2.65;1.60;;;21.50;67.00;;;;;;5093550;28;20030;-69
2021/08/06 06:32:01;;;;;;;3.08;1.77;;;21.60;66.90;;;;;;5081382;28;20103;-69
2021/08/06 06:34:27;;;;;;;2.42;1.30;;;21.60;66.10;;;;;;5091975;28;20473;-69
2021/08/06 06:36:52;;;;;;;3.25;1.88;;;21.70;65.30;;;;;;5087905;28;20028;-69
2021/08/06 06:39:18;;;;;;;3.15;2.00;;;21.70;65.30;;;;;;5091149;28;20098;-69
2021/08/06 06:41:44;;;;;;;2.95;1.40;;;21.80;65.70;;;;;;5093360;28;20050;-69
2021/08/06 06:44:10;;;;;;;3.90;1.70;;;21.80;66.30;;;;;;5093203;28;20491;-69
2021/08/06 06:46:36;;;;;;;4.93;1.65;;;21.90;66.50;;;;;;5092890;28;20106;-69
2021/08/06 06:49:01;;;;;;;2.38;1.20;;;21.90;66.30;;;;;;5075741;28;20431;-69
2021/08/06 06:51:27;;;;;;;6.20;1.58;;;22.00;66.20;;;;;;5095106;28;20418;-69
2021/08/06 06:53:53;;;;;;;3.53;1.40;;;22.00;65.20;;;;;;5093401;28;20040;-70
2021/08/06 06:56:19;;;;;;;2.90;1.60;;;22.10;65.30;;;;;;5093457;28;20020;-72
2021/08/06 06:58:44;;;;;;;3.63;1.50;;;22.20;66.00;;;;;;5093543;28;20054;-70
2021/08/06 07:01:10;;;;;;;2.03;1.35;;;22.30;65.90;;;;;;5090585;28;20103;-69
2021/08/06 07:03:36;;;;;;;1.52;1.20;;;22.50;65.70;;;;;;5073218;28;20428;-69
2021/08/06 07:06:02;;;;;;;2.30;1.60;;;22.70;64.80;;;;;;5089694;28;20453;-70
2021/08/06 07:08:28;;;;;;;1.80;1.38;;;22.80;64.80;;;;;;5091892;28;20051;-70
2021/08/06 07:10:54;;;;;;;2.67;1.15;;;22.90;64.30;;;;;;5074893;28;20043;-70
2021/08/06 07:13:20;;;;;;;4.85;1.52;;;23.00;62.90;;;;;;5091540;28;20032;-69
2021/08/06 07:15:47;;;;;;;2.63;1.48;;;23.10;63.00;;;;;;5092923;28;20020;-70
2021/08/06 07:18:13;;;;;;;2.47;1.58;;;23.10;63.00;;;;;;5089322;28;20012;-69
2021/08/06 07:20:39;;;;;;;2.72;1.50;;;23.10;61.70;;;;;;5093020;28;20035;-69
2021/08/06 07:23:05;;;;;;;2.28;1.42;;;23.20;60.40;;;;;;5091768;28;20053;-71
2021/08/06 07:25:32;;;;;;;1.67;1.45;;;23.20;61.10;;;;;;5092994;28;20031;-70
2021/08/06 07:27:57;;;;;;;2.60;1.45;;;23.20;61.10;;;;;;5083472;28;20032;-71
2021/08/06 07:30:24;;;;;;;2.17;1.80;;;23.30;62.20;;;;;;5072527;28;20032;-70
2021/08/06 07:32:50;;;;;;;3.47;1.90;;;23.40;60.90;;;;;;5072571;28;20028;-70
2021/08/06 07:35:18;;;;;;;7.43;1.85;;;23.40;60.00;;;;;;5072364;28;20105;-69
2021/08/06 07:37:44;;;;;;;2.83;1.88;;;23.40;60.60;;;;;;5087086;28;20032;-70
2021/08/06 07:40:13;;;;;;;1.95;1.77;;;23.50;59.90;;;;;;5074589;28;20031;-70
2021/08/06 07:42:38;;;;;;;7.47;1.80;;;23.50;59.70;;;;;;5092302;28;20027;-69
2021/08/06 07:45:05;;;;;;;8.80;1.30;;;23.40;59.00;;;;;;5091127;28;20035;-70
2021/08/06 07:47:31;;;;;;;1.75;1.30;;;23.40;58.70;;;;;;5076273;28;20043;-69
2021/08/06 07:49:57;;;;;;;2.20;1.23;;;23.30;59.00;;;;;;5072530;28;20028;-69
2021/08/06 07:52:22;;;;;;;2.05;1.20;;;23.30;59.00;;;;;;5080827;28;20036;-70
2021/08/06 07:54:48;;;;;;;3.28;1.10;;;23.30;58.60;;;;;;5061166;28;20478;-70
2021/08/06 07:57:14;;;;;;;2.05;1.30;;;23.30;59.40;;;;;;5067921;28;20013;-70
2021/08/06 07:59:40;;;;;;;2.70;1.42;;;23.30;59.30;;;;;;5072267;28;20531;-69
2021/08/06 08:02:07;;;;;;;2.97;1.50;;;23.30;60.00;;;;;;5072059;28;20023;-69
2021/08/06 08:04:33;;;;;;;2.10;1.27;;;23.30;59.70;;;;;;5072108;28;20025;-69
2021/08/06 08:06:59;;;;;;;1.05;0.95;;;23.30;60.30;;;;;;5084209;28;20024;-69
2021/08/06 08:09:25;;;;;;;3.83;1.30;;;23.30;59.30;;;;;;5091459;28;21291;-70
2021/08/06 08:11:51;;;;;;;4.35;1.30;;;23.30;59.10;;;;;;5091265;28;20032;-70
2021/08/06 08:14:16;;;;;;;2.03;1.58;;;23.30;59.50;;;;;;5073478;28;20478;-70
2021/08/06 08:16:42;;;;;;;4.25;1.10;;;23.30;58.90;;;;;;5076723;28;20432;-70
2021/08/06 08:19:08;;;;;;;2.05;1.38;;;23.40;58.80;;;;;;5072122;28;20024;-70
2021/08/06 08:21:34;;;;;;;1.40;1.15;;;23.40;59.00;;;;;;5071797;28;20028;-69
2021/08/06 08:24:00;;;;;;;1.40;1.10;;;23.40;58.40;;;;;;5053909;28;20029;-70
2021/08/06 08:26:26;;;;;;;1.67;1.10;;;23.40;59.00;;;;;;5072204;28;20029;-70
2021/08/06 08:28:52;;;;;;;1.38;0.90;;;23.50;59.40;;;;;;5090525;28;20097;-69
2021/08/06 08:31:18;;;;;;;2.78;1.17;;;23.50;58.90;;;;;;5091528;28;20490;-70
2021/08/06 08:33:44;;;;;;;2.80;1.40;;;23.50;58.10;;;;;;5090537;28;20047;-70
2021/08/06 08:36:10;;;;;;;3.72;2.13;;;23.50;58.30;;;;;;5091902;28;20052;-69
2021/08/06 08:38:36;;;;;;;7.85;2.55;;;23.50;58.00;;;;;;5080269;28;20047;-69
2021/08/06 08:41:03;;;;;;;1.42;1.15;;;23.60;58.20;;;;;;5081057;28;20103;-70
2021/08/06 08:43:28;;;;;;;1.77;1.60;;;23.70;57.90;;;;;;5084487;28;20038;-69
2021/08/06 08:45:56;;;;;;;10.13;3.38;;;23.70;58.00;;;;;;5087565;28;20102;-69
2021/08/06 08:48:22;;;;;;;7.55;2.30;;;23.80;57.60;;;;;;5072558;28;20028;-70
2021/08/06 08:50:51;;;;;;;8.25;5.15;;;23.80;57.20;;;;;;5075623;28;20028;-69
2021/08/06 08:53:17;;;;;;;3.05;1.70;;;23.80;57.80;;;;;;5095047;28;20059;-70
2021/08/06 08:55:43;;;;;;;2.28;1.38;;;23.90;57.60;;;;;;5094998;28;20028;-70
2021/08/06 08:58:11;;;;;;;3.70;1.85;;;23.90;57.20;;;;;;5095693;28;20162;-70
2021/08/06 09:00:37;;;;;;;3.47;2.00;;;23.90;56.70;;;;;;5090620;28;20020;-70
2021/08/06 09:03:03;;;;;;;2.33;1.40;;;23.90;57.30;;;;;;5086772;28;20098;-70
2021/08/06 09:05:29;;;;;;;1.20;1.10;;;24.00;57.60;;;;;;5091924;28;20033;-70
2021/08/06 09:07:56;;;;;;;1.65;1.20;;;24.10;56.50;;;;;;5077938;28;20046;-70
2021/08/06 09:10:27;;;;;;;2.13;1.17;;;24.10;56.90;;;;;;5088948;28;20115;-70
2021/08/06 09:12:56;;;;;;;1.88;1.00;;;24.20;56.60;;;;;;5083395;28;20025;-70
2021/08/06 09:15:52;;;;;;;1.20;1.10;;;24.30;56.00;;;;;;5083453;28;20032;-70
2021/08/06 09:18:38;;;;;;;1.38;1.20;;;24.40;55.80;;;;;;5063864;28;20115;-70
2021/08/06 09:21:16;;;;;;;1.77;1.30;;;24.50;56.10;;;;;;5075063;28;20062;-71
2021/08/06 09:23:59;;;;;;;2.70;1.55;;;24.60;54.40;;;;;;5067931;28;20077;-74
2021/08/06 09:26:39;;;;;;;2.08;0.90;;;24.70;54.80;;;;;;5095099;28;20020;-72
2021/08/06 09:29:10;;;;;;;2.25;1.25;;;24.80;55.50;;;;;;5077692;28;20459;-73
2021/08/06 09:31:42;;;;;;;1.75;0.82;;;24.90;54.90;;;;;;5075132;28;20028;-72
2021/08/06 09:34:08;;;;;;;0.63;0.63;;;25.00;55.50;;;;;;5074798;28;20094;-72
2021/08/06 09:36:34;;;;;;;1.65;0.90;;;25.10;56.40;;;;;;5081956;28;20056;-73
2021/08/06 09:39:17;;;;;;;5.32;1.00;;;25.20;54.80;;;;;;5094430;28;20107;-73
2021/08/06 09:41:45;;;;;;;2.63;0.98;;;25.30;53.60;;;;;;5094249;28;20119;-73
2021/08/06 09:44:14;;;;;;;1.00;0.80;;;25.40;53.70;;;;;;5095166;28;20027;-74
2021/08/06 09:46:40;;;;;;;1.55;1.10;;;25.50;54.50;;;;;;5094482;28;20122;-73
2021/08/06 09:49:07;;;;;;;3.55;0.90;;;25.60;53.90;;;;;;5075238;28;20032;-74
2021/08/06 09:51:36;;;;;;;2.35;0.80;;;25.80;53.50;;;;;;5094876;28;20036;-74
2021/08/06 09:54:16;;;;;;;0.90;0.90;;;25.90;53.00;;;;;;5094473;28;20071;-73
2021/08/06 09:56:42;;;;;;;2.58;0.90;;;26.00;51.80;;;;;;5075867;28;20021;-75
2021/08/06 09:59:08;;;;;;;1.02;0.93;;;26.10;53.20;;;;;;5074803;28;20021;-75
2021/08/06 10:01:33;;;;;;;0.90;0.82;;;26.20;52.00;;;;;;5056714;28;20123;-75
2021/08/06 10:04:16;;;;;;;2.00;0.93;;;26.20;53.00;;;;;;5074354;28;20451;-75
2021/08/06 10:06:58;;;;;;;2.05;0.88;;;26.20;51.70;;;;;;5078833;28;20448;-74
2021/08/06 10:09:26;;;;;;;0.98;0.80;;;26.20;50.80;;;;;;5074405;28;20443;-75
2021/08/06 10:11:52;;;;;;;1.83;0.98;;;26.30;50.70;;;;;;5056287;28;20082;-74
2021/08/06 10:14:18;;;;;;;1.00;0.82;;;26.40;50.70;;;;;;5074377;28;20025;-74
2021/08/06 10:16:44;;;;;;;3.45;1.75;;;26.50;51.60;;;;;;5073972;28;20027;-75
2021/08/06 10:19:11;;;;;;;5.43;1.05;;;26.60;48.60;;;;;;5078088;28;20020;-74
2021/08/06 10:21:36;;;;;;;4.47;1.13;;;26.70;48.80;;;;;;5074299;28;20052;-74
2021/08/06 10:24:03;;;;;;;1.20;1.00;;;26.80;49.10;;;;;;5073901;28;20049;-74
2021/08/06 10:26:29;;;;;;;1.10;1.00;;;26.80;48.80;;;;;;5091217;28;20050;-74
2021/08/06 10:28:54;;;;;;;1.05;0.88;;;26.90;47.00;;;;;;5075282;28;20081;-75
2021/08/06 10:31:23;;;;;;;1.75;0.90;;;26.90;48.50;;;;;;5094149;28;20020;-74
2021/08/06 10:34:11;;;;;;;2.25;1.20;;;26.80;47.10;;;;;;5094078;28;20058;-73
2021/08/06 10:36:41;;;;;;;1.65;1.17;;;26.80;48.10;;;;;;5093104;28;20089;-74
2021/08/06 10:39:38;;;;;;;1.92;1.08;;;26.80;48.50;;;;;;5090844;28;20482;-75
2021/08/06 10:42:05;;;;;;;3.50;1.15;;;27.00;48.30;;;;;;5072502;28;20475;-73
2021/08/06 10:44:57;;;;;;;1.38;1.17;;;27.10;47.80;;;;;;5073534;28;20120;-74
2021/08/06 10:47:42;;;;;;;6.18;1.30;;;27.20;47.10;;;;;;5072863;28;20028;-74
2021/08/06 10:50:22;;;;;;;1.45;1.17;;;27.30;44.00;;;;;;5055463;28;20107;-73
2021/08/06 10:53:17;;;;;;;3.03;1.20;;;27.20;43.90;;;;;;5091758;28;20139;-74
2021/08/06 10:55:43;;;;;;;2.70;1.10;;;27.10;45.50;;;;;;5074634;28;20038;-74
2021/08/06 10:58:08;;;;;;;8.93;1.20;;;27.10;43.50;;;;;;5090989;28;20020;-74
2021/08/06 11:00:37;;;;;;;2.85;1.13;;;27.00;44.20;;;;;;5093659;28;20095;-73
2021/08/06 11:03:03;;;;;;;1.80;1.05;;;27.00;45.20;;;;;;5091667;28;20538;-74
2021/08/06 11:05:38;;;;;;;1.33;0.98;;;27.00;43.90;;;;;;5092365;28;20195;-72
2021/08/06 11:08:42;;;;;;;1.30;1.00;;;27.00;43.80;;;;;;5093201;28;20020;-73
2021/08/06 11:11:07;;;;;;;3.42;1.42;;;27.00;46.00;;;;;;5092896;28;20032;-74
2021/08/06 11:13:33;;;;;;;1.88;1.10;;;27.10;44.60;;;;;;5092625;28;20042;-74
2021/08/06 11:16:09;;;;;;;3.85;1.20;;;27.20;44.70;;;;;;5091832;28;20390;-74
2021/08/06 11:18:41;;;;;;;1.70;0.98;;;27.30;44.80;;;;;;5071633;28;20082;-74
2021/08/06 11:21:07;;;;;;;1.15;0.98;;;27.40;44.70;;;;;;5093221;28;20028;-74
2021/08/06 11:23:33;;;;;;;1.70;1.05;;;27.40;44.40;;;;;;5093967;28;20028;-75
2021/08/06 11:26:11;;;;;;;2.10;0.95;;;27.50;43.90;;;;;;5075839;28;20385;-73
2021/08/06 11:28:37;;;;;;;2.08;0.95;;;27.70;43.20;;;;;;5065763;28;20032;-74
2021/08/06 11:31:20;;;;;;;4.35;0.93;;;27.70;42.70;;;;;;5093160;28;20051;-74
2021/08/06 11:34:04;;;;;;;2.92;1.10;;;27.80;43.40;;;;;;5077983;28;20032;-73
2021/08/06 11:36:30;;;;;;;1.58;1.17;;;28.00;44.40;;;;;;5083543;28;20024;-75
2021/08/06 11:39:02;;;;;;;7.25;1.67;;;28.20;42.10;;;;;;5093407;28;20024;-75
2021/08/06 11:41:30;;;;;;;1.92;1.10;;;28.30;42.80;;;;;;5093360;28;20023;-74
2021/08/06 11:43:57;;;;;;;2.75;1.15;;;28.50;42.90;;;;;;5092719;28;20229;-74
2021/08/06 11:46:23;;;;;;;2.25;1.20;;;28.60;41.00;;;;;;5092628;28;20026;-74
2021/08/06 11:48:59;;;;;;;2.15;0.93;;;28.80;42.90;;;;;;5093437;28;20107;-75
2021/08/06 11:51:25;;;;;;;3.67;1.20;;;28.90;41.70;;;;;;5092584;28;20481;-74
2021/08/06 11:53:51;;;;;;;1.17;0.95;;;28.90;41.40;;;;;;5074792;28;20135;-73
2021/08/06 11:56:22;;;;;;;1.42;1.20;;;28.90;42.80;;;;;;5074727;28;20028;-74
2021/08/06 11:58:49;;;;;;;2.17;1.13;;;28.90;41.50;;;;;;5068295;28;20025;-74
2021/08/06 12:01:22;;;;;;;2.30;1.10;;;28.70;41.30;;;;;;5073053;28;20363;-74
2021/08/06 12:03:52;;;;;;;1.52;1.10;;;28.50;41.20;;;;;;5055099;28;20024;-74
2021/08/06 12:06:19;;;;;;;3.60;1.48;;;28.30;42.00;;;;;;5091935;28;20032;-74
2021/08/06 12:08:50;;;;;;;4.80;1.00;;;28.10;43.20;;;;;;5092662;28;20038;-73
2021/08/06 12:11:17;;;;;;;2.28;1.40;;;28.00;43.10;;;;;;5085198;28;20436;-74
2021/08/06 12:13:54;;;;;;;2.47;1.25;;;27.80;42.50;;;;;;5087088;28;20020;-74
2021/08/06 12:16:41;;;;;;;4.07;1.40;;;27.70;43.30;;;;;;5092924;28;20055;-73
2021/08/06 12:19:09;;;;;;;1.48;1.05;;;27.30;43.50;;;;;;5092377;28;20020;-74
2021/08/06 12:21:40;;;;;;;2.35;1.25;;;27.30;43.80;;;;;;5074804;28;20056;-73
2021/08/06 12:24:15;;;;;;;1.95;1.13;;;27.20;44.10;;;;;;5090329;28;20024;-74
2021/08/06 12:26:50;;;;;;;3.35;1.23;;;27.00;45.10;;;;;;5068932;28;20051;-74
2021/08/06 12:29:22;;;;;;;2.15;1.50;;;27.00;45.70;;;;;;5092947;28;20506;-73
2021/08/06 12:31:58;;;;;;;1.20;1.10;;;27.00;45.40;;;;;;5073576;28;20039;-73
2021/08/06 12:34:34;;;;;;;2.10;1.10;;;27.00;45.40;;;;;;5074586;28;20028;-68
2021/08/06 12:37:09;;;;;;;1.83;1.15;;;27.10;46.30;;;;;;5085100;28;20449;-68
2021/08/06 12:39:46;;;;;;;3.00;1.27;;;27.10;46.10;;;;;;5087448;28;20094;-68
2021/08/06 12:42:29;;;;;;;1.30;1.20;;;27.10;45.30;;;;;;5086110;28;20020;-67
2021/08/06 12:44:56;;;;;;;2.00;0.85;;;27.20;46.10;;;;;;5080687;28;20021;-68
2021/08/06 12:47:23;;;;;;;7.03;1.00;;;27.20;45.80;;;;;;5076981;28;20071;-71
2021/08/06 12:50:01;;;;;;;3.03;1.85;;;27.20;45.70;;;;;;5088690;28;20020;-73
2021/08/06 12:52:36;;;;;;;6.43;1.17;;;27.20;45.10;;;;;;5072482;28;20040;-73
2021/08/06 12:55:07;;;;;;;4.47;1.17;;;27.20;45.80;;;;;;5054564;28;20421;-73